createdAt,value
2023-05-07T00:01:42.624Z,14.81
2023-05-07T00:03:43.110Z,14.77
2023-05-07T00:05:43.472Z,14.77
2023-05-07T00:07:43.908Z,14.70
2023-05-07T00:09:44.236Z,14.72
2023-05-07T00:11:44.626Z,14.65
2023-05-07T00:13:44.936Z,14.62
2023-05-07T00:15:45.286Z,14.55
2023-05-07T00:17:45.575Z,14.51
2023-05-07T00:19:45.961Z,14.47
2023-05-07T00:21:46.216Z,14.41
2023-05-07T00:23:46.591Z,14.37
2023-05-07T00:25:46.918Z,14.33
2023-05-07T00:27:47.243Z,14.30
2023-05-07T00:29:47.600Z,14.17
2023-05-07T00:31:48.036Z,14.18
2023-05-07T00:33:48.361Z,14.11
2023-05-07T00:35:48.613Z,14.22
2023-05-07T00:37:48.982Z,14.28
2023-05-07T00:39:49.259Z,14.32
2023-05-07T00:41:49.583Z,14.28
2023-05-07T00:43:49.889Z,14.35
2023-05-07T00:45:50.186Z,14.40
2023-05-07T00:47:50.776Z,14.51
2023-05-07T00:49:51.099Z,14.53
2023-05-07T00:51:51.384Z,14.48
2023-05-07T00:53:51.677Z,14.47
2023-05-07T00:55:51.963Z,14.41
2023-05-07T00:57:52.303Z,14.33
2023-05-07T00:59:52.668Z,14.23
2023-05-07T01:01:52.942Z,14.14
2023-05-07T01:03:53.425Z,14.11
2023-05-07T01:05:54.108Z,14.08
2023-05-07T01:07:54.652Z,14.00
2023-05-07T01:09:54.908Z,13.92
2023-05-07T01:11:55.199Z,13.89
2023-05-07T01:13:55.601Z,13.81
2023-05-07T01:15:55.860Z,13.74
2023-05-07T01:17:56.249Z,13.75
2023-05-07T01:19:56.695Z,13.71
2023-05-07T01:21:56.994Z,13.68
2023-05-07T01:23:57.262Z,13.71
2023-05-07T01:25:57.616Z,13.72
2023-05-07T01:27:57.913Z,13.71
2023-05-07T01:29:58.297Z,13.71
2023-05-07T01:31:58.624Z,13.68
2023-05-07T01:33:58.949Z,13.70
2023-05-07T01:35:59.431Z,13.71
2023-05-07T01:37:59.735Z,13.67
2023-05-07T01:40:00.074Z,13.63
2023-05-07T01:42:00.385Z,13.62
2023-05-07T01:44:00.686Z,13.63
2023-05-07T01:46:01.032Z,13.65
2023-05-07T01:48:01.363Z,13.62
2023-05-07T01:50:01.646Z,13.60
2023-05-07T01:52:02.193Z,13.62
2023-05-07T01:54:02.485Z,13.62
2023-05-07T01:56:02.811Z,13.67
2023-05-07T01:58:03.099Z,13.65
2023-05-07T02:00:03.389Z,13.68
2023-05-07T02:02:03.768Z,13.75
2023-05-07T02:04:04.135Z,13.85
2023-05-07T02:06:04.433Z,13.92
2023-05-07T02:08:04.764Z,13.89
2023-05-07T02:10:05.020Z,13.92
2023-05-07T02:12:05.335Z,13.93
2023-05-07T02:14:05.639Z,13.90
2023-05-07T02:16:06.063Z,13.87
2023-05-07T02:18:06.402Z,13.79
2023-05-07T02:20:06.735Z,13.75
2023-05-07T02:22:06.995Z,13.68
2023-05-07T02:24:07.433Z,13.62
2023-05-07T02:26:07.673Z,13.59
2023-05-07T02:28:08.023Z,13.54
2023-05-07T02:30:08.484Z,13.49
2023-05-07T02:32:09.087Z,13.49
2023-05-07T02:34:09.402Z,13.47
2023-05-07T02:36:09.717Z,13.52
2023-05-07T02:38:10.077Z,13.52
2023-05-07T02:40:10.503Z,13.52
2023-05-07T02:42:10.855Z,13.53
2023-05-07T02:44:11.143Z,13.49
2023-05-07T02:46:11.583Z,13.50
2023-05-07T02:48:11.910Z,13.47
2023-05-07T02:50:12.479Z,13.52
2023-05-07T02:52:12.856Z,13.54
2023-05-07T02:54:13.195Z,13.52
2023-05-07T02:56:13.627Z,13.52
2023-05-07T02:58:13.899Z,13.54
2023-05-07T03:00:14.242Z,13.60
2023-05-07T03:02:14.511Z,13.56
2023-05-07T03:04:14.866Z,13.53
2023-05-07T03:06:15.192Z,13.52
2023-05-07T03:08:15.548Z,13.60
2023-05-07T03:10:15.794Z,13.65
2023-05-07T03:12:16.191Z,13.59
2023-05-07T03:14:16.412Z,13.57
2023-05-07T03:16:16.854Z,13.57
2023-05-07T03:18:17.220Z,13.53
2023-05-07T03:20:17.595Z,13.53
2023-05-07T03:22:17.941Z,13.41
2023-05-07T03:24:18.230Z,13.44
2023-05-07T03:26:18.510Z,13.44
2023-05-07T03:28:18.941Z,13.37
2023-05-07T03:30:19.987Z,13.31
2023-05-07T03:32:20.354Z,13.25
2023-05-07T03:34:20.637Z,13.16
2023-05-07T03:36:20.925Z,13.09
2023-05-07T03:38:21.270Z,13.00
2023-05-07T03:40:21.539Z,12.94
2023-05-07T03:42:21.867Z,12.86
2023-05-07T03:44:22.191Z,12.80
2023-05-07T03:46:23.047Z,12.80
2023-05-07T03:48:23.310Z,12.86
2023-05-07T03:50:23.634Z,12.85
2023-05-07T03:52:23.901Z,12.82
2023-05-07T03:54:24.311Z,12.78
2023-05-07T03:56:24.704Z,12.73
2023-05-07T03:58:24.945Z,12.68
2023-05-07T04:00:25.328Z,12.67
2023-05-07T04:02:25.666Z,12.65
2023-05-07T04:04:25.995Z,12.68
2023-05-07T04:06:26.392Z,12.64
2023-05-07T04:08:26.678Z,12.60
2023-05-07T04:10:26.957Z,12.58
2023-05-07T04:12:27.248Z,12.65
2023-05-07T04:14:27.675Z,12.62
2023-05-07T04:16:28.090Z,12.60
2023-05-07T04:18:28.392Z,12.62
2023-05-07T04:20:28.716Z,12.64
2023-05-07T04:22:28.980Z,12.64
2023-05-07T04:24:29.293Z,12.68
2023-05-07T04:26:29.586Z,12.72
2023-05-07T04:28:29.845Z,12.76
2023-05-07T04:30:30.165Z,12.75
2023-05-07T04:32:30.520Z,12.73
2023-05-07T04:34:30.753Z,12.78
2023-05-07T04:36:31.109Z,12.83
2023-05-07T04:38:31.364Z,12.93
2023-05-07T04:40:31.671Z,12.97
2023-05-07T04:42:31.974Z,13.12
2023-05-07T04:44:32.324Z,13.20
2023-05-07T04:46:32.755Z,13.31
2023-05-07T04:48:33.132Z,13.39
2023-05-07T04:50:33.403Z,13.46
2023-05-07T04:52:33.739Z,13.52
2023-05-07T04:54:34.020Z,13.54
2023-05-07T04:56:34.339Z,13.60
2023-05-07T04:58:34.748Z,13.68
2023-05-07T05:00:35.068Z,13.72
2023-05-07T05:02:35.326Z,13.75
2023-05-07T05:04:35.724Z,13.81
2023-05-07T05:06:35.966Z,13.87
2023-05-07T05:08:36.346Z,13.93
2023-05-07T05:10:36.596Z,13.96
2023-05-07T05:12:36.924Z,14.03
2023-05-07T05:14:37.199Z,14.10
2023-05-07T05:16:37.579Z,14.14
2023-05-07T05:18:37.982Z,14.18
2023-05-07T05:20:38.334Z,14.25
2023-05-07T05:22:38.578Z,14.35
2023-05-07T05:24:38.984Z,14.44
2023-05-07T05:26:39.231Z,14.51
2023-05-07T05:28:39.538Z,14.59
2023-05-07T05:30:39.804Z,14.70
2023-05-07T05:32:40.129Z,14.82
2023-05-07T05:34:40.423Z,14.92
2023-05-07T05:36:40.731Z,15.02
2023-05-07T05:38:41.107Z,15.07
2023-05-07T05:40:41.406Z,15.17
2023-05-07T05:42:41.700Z,15.21
2023-05-07T05:44:41.991Z,15.27
2023-05-07T05:46:42.385Z,15.36
2023-05-07T05:48:42.643Z,15.37
2023-05-07T05:50:42.987Z,15.42
2023-05-07T05:52:43.359Z,15.46
2023-05-07T05:54:43.688Z,15.55
2023-05-07T05:56:43.998Z,15.62
2023-05-07T05:58:44.265Z,15.75
2023-05-07T06:00:44.561Z,15.80
2023-05-07T06:02:45.097Z,15.83
2023-05-07T06:04:45.394Z,15.86
2023-05-07T06:06:45.853Z,15.88
2023-05-07T06:08:46.229Z,15.86
2023-05-07T06:10:46.500Z,15.91
2023-05-07T06:12:46.870Z,16.01
2023-05-07T06:14:47.410Z,16.01
2023-05-07T06:16:47.839Z,16.16
2023-05-07T06:18:48.112Z,16.29
2023-05-07T06:20:48.391Z,16.42
2023-05-07T06:22:48.892Z,16.42
2023-05-07T06:24:49.190Z,16.46
2023-05-07T06:26:49.481Z,16.58
2023-05-07T06:28:49.787Z,16.68
2023-05-07T06:30:50.116Z,16.81
2023-05-07T06:32:50.572Z,16.97
2023-05-07T06:34:50.855Z,17.05
2023-05-07T06:36:51.123Z,17.16
2023-05-07T06:38:51.478Z,17.26
2023-05-07T06:40:51.753Z,17.34
2023-05-07T06:42:52.064Z,17.48
2023-05-07T06:44:52.334Z,17.60
2023-05-07T06:46:52.722Z,17.68
2023-05-07T06:48:52.998Z,17.79
2023-05-07T06:50:53.283Z,17.90
2023-05-07T06:52:53.550Z,18.05
2023-05-07T06:54:53.868Z,18.03
2023-05-07T06:56:54.256Z,18.04
2023-05-07T06:58:54.512Z,18.16
2023-05-07T07:00:54.827Z,18.22
2023-05-07T07:02:55.173Z,18.26
2023-05-07T07:04:55.551Z,18.40
2023-05-07T07:06:55.850Z,18.52
2023-05-07T07:08:56.111Z,18.63
2023-05-07T07:10:56.487Z,18.74
2023-05-07T07:12:57.038Z,18.89
2023-05-07T07:14:57.366Z,18.93
2023-05-07T07:17:02.534Z,19.07
2023-05-07T07:19:02.830Z,19.21
2023-05-07T07:21:03.099Z,19.44
2023-05-07T07:23:03.574Z,19.52
2023-05-07T07:25:03.837Z,19.51
2023-05-07T07:27:04.237Z,19.66
2023-05-07T07:29:04.649Z,19.88
2023-05-07T07:31:05.030Z,20.07
2023-05-07T07:33:05.316Z,20.04
2023-05-07T07:35:05.604Z,20.06
2023-05-07T07:37:05.881Z,20.21
2023-05-07T07:39:06.168Z,20.32
2023-05-07T07:41:06.524Z,20.48
2023-05-07T07:43:06.800Z,20.56
2023-05-07T07:45:07.243Z,20.66
2023-05-07T07:47:07.584Z,20.72
2023-05-07T07:49:07.975Z,20.82
2023-05-07T07:51:08.247Z,20.93
2023-05-07T07:53:08.703Z,20.97
2023-05-07T07:55:08.952Z,20.96
2023-05-07T07:57:09.245Z,21.11
2023-05-07T07:59:09.551Z,21.00
2023-05-07T08:01:09.934Z,21.02
2023-05-07T08:03:10.301Z,21.07
2023-05-07T08:05:10.761Z,20.87
2023-05-07T08:07:11.116Z,20.80
2023-05-07T08:09:11.441Z,20.81
2023-05-07T08:11:11.798Z,20.72
2023-05-07T08:13:12.148Z,20.75
2023-05-07T08:15:12.595Z,20.67
2023-05-07T08:17:13.195Z,20.69
2023-05-07T08:19:13.603Z,20.67
2023-05-07T08:21:14.027Z,20.67
2023-05-07T08:23:14.368Z,20.77
2023-05-07T08:25:14.716Z,20.74
2023-05-07T08:27:15.075Z,20.72
2023-05-07T08:29:15.446Z,20.72
2023-05-07T08:31:15.949Z,20.59
2023-05-07T08:33:16.412Z,20.44
2023-05-07T08:35:16.754Z,20.50
2023-05-07T08:37:17.087Z,20.63
2023-05-07T08:39:17.523Z,20.72
2023-05-07T08:41:17.968Z,20.70
2023-05-07T08:43:18.293Z,20.72
2023-05-07T08:45:18.692Z,20.87
2023-05-07T08:47:19.006Z,21.05
2023-05-07T08:49:19.445Z,21.11
2023-05-07T08:51:19.749Z,21.29
2023-05-07T08:53:20.138Z,21.36
2023-05-07T08:55:20.445Z,21.46
2023-05-07T08:57:20.785Z,21.58
2023-05-07T08:59:21.172Z,21.69
2023-05-07T09:01:21.581Z,21.52
2023-05-07T09:03:22.056Z,21.51
2023-05-07T09:05:22.743Z,21.37
2023-05-07T09:07:23.064Z,21.27
2023-05-07T09:09:23.573Z,21.27
2023-05-07T09:11:23.969Z,21.37
2023-05-07T09:13:24.329Z,21.36
2023-05-07T09:15:24.657Z,21.45
2023-05-07T09:17:25.102Z,21.48
2023-05-07T09:19:25.455Z,21.51
2023-05-07T09:21:25.782Z,21.51
2023-05-07T09:23:26.091Z,21.48
2023-05-07T09:25:26.413Z,21.51
2023-05-07T09:27:26.750Z,21.46
2023-05-07T09:29:27.153Z,21.46
2023-05-07T09:31:27.456Z,21.62
2023-05-07T09:33:27.796Z,21.80
2023-05-07T09:35:28.100Z,21.85
2023-05-07T09:37:28.564Z,22.04
2023-05-07T09:39:28.824Z,22.25
2023-05-07T09:41:29.228Z,22.41
2023-05-07T09:43:29.458Z,22.51
2023-05-07T09:45:29.894Z,22.54
2023-05-07T09:47:30.220Z,22.63
2023-05-07T09:49:30.507Z,22.59
2023-05-07T09:51:30.828Z,22.59
2023-05-07T09:53:31.273Z,22.48
2023-05-07T09:55:36.324Z,22.47
2023-05-07T09:57:36.791Z,22.38
2023-05-07T09:59:37.076Z,22.38
2023-05-07T10:01:37.591Z,22.41
2023-05-07T10:03:38.146Z,22.32
2023-05-07T10:05:38.508Z,22.28
2023-05-07T10:07:38.921Z,22.22
2023-05-07T10:09:39.249Z,22.29
2023-05-07T10:11:39.595Z,22.11
2023-05-07T10:13:39.876Z,22.02
2023-05-07T10:15:40.194Z,22.15
2023-05-07T10:17:40.725Z,22.25
2023-05-07T10:19:41.151Z,22.38
2023-05-07T10:21:41.512Z,22.48
2023-05-07T10:23:41.798Z,22.53
2023-05-07T10:25:42.120Z,22.54
2023-05-07T10:27:42.478Z,22.70
2023-05-07T10:29:42.766Z,22.81
2023-05-07T10:31:43.193Z,22.96
2023-05-07T10:33:43.525Z,22.99
2023-05-07T10:35:43.891Z,23.15
2023-05-07T10:37:44.185Z,23.36
2023-05-07T10:39:44.490Z,23.61
2023-05-07T10:41:44.809Z,23.76
2023-05-07T10:43:45.133Z,23.91
2023-05-07T10:45:45.425Z,24.11
2023-05-07T10:47:45.849Z,24.26
2023-05-07T10:49:46.212Z,24.48
2023-05-07T10:51:46.522Z,24.73
2023-05-07T10:53:46.839Z,24.86
2023-05-07T10:55:47.139Z,24.95
2023-05-07T10:57:47.555Z,25.01
2023-05-07T10:59:47.899Z,25.13
2023-05-07T11:02:31.355Z,25.25
2023-05-07T11:04:31.699Z,25.18
2023-05-07T11:06:32.073Z,25.25
2023-05-07T11:08:32.358Z,25.22
2023-05-07T11:10:32.738Z,25.46
2023-05-07T11:12:33.005Z,25.51
2023-05-07T11:14:33.467Z,25.29
2023-05-07T11:16:33.752Z,25.21
2023-05-07T11:18:34.148Z,25.28
2023-05-07T11:20:34.458Z,25.48
2023-05-07T11:22:34.813Z,25.77
2023-05-07T11:24:35.376Z,26.00
2023-05-07T11:26:35.766Z,25.99
2023-05-07T11:28:36.214Z,25.99
2023-05-07T11:30:36.643Z,26.02
2023-05-07T11:32:36.928Z,26.03
2023-05-07T11:34:37.221Z,26.13
2023-05-07T11:36:37.520Z,26.23
2023-05-07T11:38:37.883Z,26.15
2023-05-07T11:40:38.188Z,25.91
2023-05-07T11:42:38.572Z,26.22
2023-05-07T11:44:38.987Z,26.53
2023-05-07T11:46:39.372Z,26.58
2023-05-07T11:48:39.764Z,26.25
2023-05-07T11:50:40.047Z,26.31
2023-05-07T11:52:41.346Z,26.43
2023-05-07T11:54:41.689Z,26.56
2023-05-07T11:56:42.011Z,26.93
2023-05-07T11:58:42.380Z,26.99
2023-05-07T12:00:42.691Z,27.00
2023-05-07T12:02:43.292Z,27.17
2023-05-07T12:04:43.756Z,27.27
2023-05-07T12:06:44.029Z,27.37
2023-05-07T12:08:46.477Z,27.35
2023-05-07T12:10:48.046Z,27.54
2023-05-07T12:12:48.398Z,27.67
2023-05-07T12:14:48.736Z,27.77
2023-05-07T12:16:49.059Z,27.54
2023-05-07T12:18:49.442Z,27.42
2023-05-07T12:20:49.762Z,27.67
2023-05-07T12:22:50.056Z,27.77
2023-05-07T12:24:50.469Z,28.07
2023-05-07T12:26:50.831Z,28.17
2023-05-07T12:28:51.131Z,28.51
2023-05-07T12:30:51.452Z,28.82
2023-05-07T12:32:51.798Z,29.19
2023-05-07T12:34:52.177Z,29.19
2023-05-07T12:36:52.471Z,29.23
2023-05-07T12:38:52.808Z,29.34
2023-05-07T12:40:53.094Z,29.84
2023-05-07T12:42:53.393Z,30.12
2023-05-07T12:44:53.749Z,30.55
2023-05-07T12:46:54.131Z,30.73
2023-05-07T12:48:55.410Z,30.84
2023-05-07T12:51:00.611Z,31.05
2023-05-07T12:53:00.933Z,30.78
2023-05-07T12:55:01.252Z,30.43
2023-05-07T12:57:01.606Z,30.48
2023-05-07T12:59:01.911Z,30.77
2023-05-07T13:01:02.204Z,30.84
2023-05-07T13:03:02.634Z,30.88
2023-05-07T13:05:02.981Z,31.06
2023-05-07T13:07:03.256Z,30.92
2023-05-07T13:09:03.586Z,30.78
2023-05-07T13:11:03.876Z,29.59
2023-05-07T13:13:04.341Z,28.85
2023-05-07T13:15:04.608Z,28.64
2023-05-07T13:17:04.998Z,28.82
2023-05-07T13:19:05.318Z,28.45
2023-05-07T13:21:05.607Z,27.78
2023-05-07T13:23:05.987Z,27.44
2023-05-07T13:25:06.257Z,27.27
2023-05-07T13:27:06.600Z,27.27
2023-05-07T13:29:06.915Z,26.93
2023-05-07T13:31:07.327Z,26.62
2023-05-07T13:33:07.725Z,26.40
2023-05-07T13:35:08.051Z,26.06
2023-05-07T13:37:11.218Z,25.73
2023-05-07T13:39:12.028Z,25.33
2023-05-07T13:41:12.351Z,25.29
2023-05-07T13:43:12.687Z,25.28
2023-05-07T13:45:13.115Z,25.11
2023-05-07T13:47:13.436Z,24.91
2023-05-07T13:49:13.753Z,24.58
2023-05-07T13:51:14.015Z,24.42
2023-05-07T13:53:14.367Z,24.26
2023-05-07T13:55:14.727Z,24.05
2023-05-07T13:57:15.146Z,23.63
2023-05-07T13:59:15.600Z,22.88
2023-05-07T14:01:15.900Z,21.99
2023-05-07T14:03:16.315Z,21.51
2023-05-07T14:05:16.736Z,21.00
2023-05-07T14:07:17.033Z,20.32
2023-05-07T14:09:17.359Z,19.81
2023-05-07T14:11:17.688Z,19.39
2023-05-07T14:13:17.971Z,19.02
2023-05-07T14:15:18.325Z,18.62
2023-05-07T14:17:18.706Z,18.34
2023-05-07T14:19:19.150Z,18.15
2023-05-07T14:21:19.491Z,17.89
2023-05-07T14:23:19.775Z,17.72
2023-05-07T14:25:20.280Z,17.60
2023-05-07T14:27:20.835Z,17.54
2023-05-07T14:29:24.041Z,17.57
2023-05-07T14:31:24.613Z,17.48
2023-05-07T14:33:24.980Z,17.39
2023-05-07T14:35:25.298Z,17.29
2023-05-07T14:37:25.567Z,17.12
2023-05-07T14:39:30.847Z,17.01
2023-05-07T14:41:31.191Z,16.84
2023-05-07T14:43:31.526Z,16.66
2023-05-07T14:45:31.906Z,16.38
2023-05-07T14:47:32.242Z,16.29
2023-05-07T14:49:32.595Z,16.26
2023-05-07T14:51:32.910Z,16.21
2023-05-07T14:53:33.247Z,16.17
2023-05-07T14:55:35.418Z,16.20
2023-05-07T14:57:35.926Z,16.21
2023-05-07T14:59:36.285Z,16.21
2023-05-07T15:01:36.648Z,16.24
2023-05-07T15:03:37.024Z,16.24
2023-05-07T15:05:37.598Z,16.23
2023-05-07T15:07:37.958Z,16.23
2023-05-07T15:09:38.240Z,16.20
2023-05-07T15:11:38.610Z,16.08
2023-05-07T15:13:38.898Z,16.08
2023-05-07T15:15:39.225Z,16.00
2023-05-07T15:17:39.616Z,15.91
2023-05-07T15:19:39.965Z,15.90
2023-05-07T15:21:40.314Z,15.90
2023-05-07T15:23:40.594Z,15.88
2023-05-07T15:25:40.900Z,15.88
2023-05-07T15:27:41.346Z,15.86
2023-05-07T15:29:41.826Z,15.92
2023-05-07T15:31:42.129Z,15.95
2023-05-07T15:33:42.438Z,15.94
2023-05-07T15:35:42.807Z,15.90
2023-05-07T15:37:43.120Z,15.90
2023-05-07T15:39:43.536Z,15.92
2023-05-07T15:41:43.902Z,15.86
2023-05-07T15:43:44.674Z,15.82
2023-05-07T15:45:45.064Z,15.73
2023-05-07T15:47:45.398Z,15.64
2023-05-07T15:49:45.751Z,15.61
2023-05-07T15:51:46.044Z,15.59
2023-05-07T15:53:46.373Z,15.59
2023-05-07T15:55:48.294Z,15.54
2023-05-07T15:57:50.005Z,15.52
2023-05-07T15:59:50.353Z,15.47
2023-05-07T16:01:50.966Z,15.43
2023-05-07T16:03:51.457Z,15.40
2023-05-07T16:05:51.719Z,15.37
2023-05-07T16:07:52.087Z,15.36
2023-05-07T16:09:52.453Z,15.28
2023-05-07T16:11:52.920Z,15.28
2023-05-07T16:13:53.688Z,15.27
2023-05-07T16:15:54.065Z,15.27
2023-05-07T16:17:54.486Z,15.24
2023-05-07T16:19:54.807Z,15.19
2023-05-07T16:21:55.103Z,15.25
2023-05-07T16:23:55.452Z,15.24
2023-05-07T16:25:56.414Z,15.19
2023-05-07T16:27:56.747Z,15.17
2023-05-07T16:29:57.040Z,15.18
2023-05-07T16:31:57.330Z,15.18
2023-05-07T16:33:57.669Z,15.22
2023-05-07T16:35:58.006Z,15.18
2023-05-07T16:37:58.277Z,15.18
2023-05-07T16:39:58.979Z,15.15
2023-05-07T16:41:59.310Z,15.15
2023-05-07T16:43:59.632Z,15.07
2023-05-07T16:46:00.045Z,15.07
2023-05-07T16:48:00.489Z,15.07
2023-05-07T16:50:00.806Z,15.07
2023-05-07T16:52:01.144Z,15.06
2023-05-07T16:54:01.506Z,15.07
2023-05-07T16:56:01.770Z,15.09
2023-05-07T16:58:02.078Z,15.06
2023-05-07T17:00:02.370Z,15.07
2023-05-07T17:02:02.652Z,15.06
2023-05-07T17:04:03.175Z,15.11
2023-05-07T17:06:03.572Z,15.14
2023-05-07T17:08:03.886Z,15.14
2023-05-07T17:10:04.275Z,15.18
2023-05-07T17:12:09.409Z,15.15
2023-05-07T17:14:09.698Z,15.14
2023-05-07T17:16:10.693Z,15.19
2023-05-07T17:18:11.050Z,15.19
2023-05-07T17:20:11.790Z,15.21
2023-05-07T17:22:12.225Z,15.18
2023-05-07T17:24:12.535Z,15.15
2023-05-07T17:26:12.847Z,15.10
2023-05-07T17:28:13.099Z,15.15
2023-05-07T17:30:13.807Z,15.17
2023-05-07T17:32:14.784Z,15.14
2023-05-07T17:34:15.379Z,15.18
2023-05-07T17:36:15.668Z,15.17
2023-05-07T17:38:15.980Z,15.15
2023-05-07T17:40:16.314Z,15.18
2023-05-07T17:42:17.271Z,15.17
2023-05-07T17:44:17.565Z,15.21
2023-05-07T17:46:17.957Z,15.22
2023-05-07T17:48:18.219Z,15.22
2023-05-07T17:50:18.664Z,15.27
2023-05-07T17:52:19.010Z,15.31
2023-05-07T17:54:19.318Z,15.31
2023-05-07T17:56:19.684Z,15.27
2023-05-07T17:58:20.037Z,15.25
2023-05-07T18:00:20.393Z,15.25
2023-05-07T18:02:20.764Z,15.27
2023-05-07T18:04:21.088Z,15.27
2023-05-07T18:06:21.481Z,15.25
2023-05-07T18:08:21.838Z,15.22
2023-05-07T18:10:22.201Z,15.21
2023-05-07T18:12:23.183Z,15.22
2023-05-07T18:14:24.460Z,15.19
2023-05-07T18:16:26.178Z,15.21
2023-05-07T18:18:27.047Z,15.19
2023-05-07T18:21:55.545Z,15.24
2023-05-07T18:24:41.094Z,15.22
2023-05-07T18:26:46.344Z,15.19
2023-05-07T18:28:46.752Z,15.18
2023-05-07T18:30:47.034Z,15.17
2023-05-07T18:32:47.412Z,15.19
2023-05-07T18:34:47.835Z,15.18
2023-05-07T18:36:48.229Z,15.17
2023-05-07T18:38:48.749Z,15.15
2023-05-07T18:40:49.120Z,15.14
2023-05-07T18:42:49.511Z,15.15
2023-05-07T18:44:49.969Z,15.15
2023-05-07T18:46:50.575Z,15.19
2023-05-07T18:48:50.928Z,15.19
2023-05-07T18:50:51.234Z,15.15
2023-05-07T18:52:51.773Z,15.15
2023-05-07T18:54:52.358Z,15.17
2023-05-07T18:56:52.730Z,15.15
2023-05-07T18:58:53.332Z,15.14
2023-05-07T19:00:53.809Z,15.15
2023-05-07T19:02:54.190Z,15.15
2023-05-07T19:04:54.635Z,15.18
2023-05-07T19:06:54.998Z,15.15
2023-05-07T19:08:55.478Z,15.14
2023-05-07T19:10:55.780Z,15.17
2023-05-07T19:12:56.122Z,15.14
2023-05-07T19:14:56.496Z,15.17
2023-05-07T19:16:56.937Z,15.19
2023-05-07T19:18:57.282Z,15.17
2023-05-07T19:20:57.610Z,15.17
2023-05-07T19:22:57.903Z,15.15
2023-05-07T19:24:58.300Z,15.14
2023-05-07T19:26:58.617Z,15.11
2023-05-07T19:31:02.200Z,15.15
2023-05-07T19:33:02.652Z,15.15
2023-05-07T19:35:02.971Z,15.14
2023-05-07T19:37:03.420Z,15.19
2023-05-07T19:39:03.868Z,15.17
2023-05-07T19:41:04.205Z,15.11
2023-05-07T19:43:04.564Z,15.14
2023-05-07T19:45:04.967Z,15.09
2023-05-07T19:47:05.267Z,15.10
2023-05-07T19:49:05.628Z,15.11
2023-05-07T19:51:05.938Z,15.10
2023-05-07T19:53:06.284Z,15.15
2023-05-07T19:55:06.699Z,15.14
2023-05-07T19:57:07.306Z,15.11
2023-05-07T19:59:07.773Z,15.11
2023-05-07T20:01:08.171Z,15.17
2023-05-07T20:03:08.566Z,15.11
2023-05-07T20:05:08.904Z,15.17
2023-05-07T20:07:09.204Z,15.11
2023-05-07T20:09:09.478Z,15.10
2023-05-07T20:11:09.786Z,15.07
2023-05-07T20:13:11.330Z,14.99
2023-05-07T20:15:11.691Z,14.94
2023-05-07T20:17:12.006Z,14.99
2023-05-07T20:19:12.285Z,14.99
2023-05-07T20:21:12.669Z,14.97
2023-05-07T20:23:12.985Z,15.00
2023-05-07T20:25:13.298Z,15.00
2023-05-07T20:27:13.611Z,15.00
2023-05-07T20:29:13.931Z,15.07
2023-05-07T20:31:14.245Z,15.02
2023-05-07T20:33:14.527Z,15.03
2023-05-07T20:35:14.827Z,15.03
2023-05-07T20:37:15.149Z,14.99
2023-05-07T20:39:15.428Z,15.03
2023-05-07T20:41:15.733Z,15.03
2023-05-07T20:43:16.023Z,15.00
2023-05-07T20:45:16.312Z,15.02
2023-05-07T20:47:16.652Z,15.03
2023-05-07T20:49:16.931Z,15.03
2023-05-07T20:51:17.233Z,15.07
2023-05-07T20:53:17.577Z,15.06
2023-05-07T20:55:17.858Z,15.06
2023-05-07T20:57:18.167Z,15.06
2023-05-07T20:59:18.448Z,15.06
2023-05-07T21:01:18.780Z,15.04
2023-05-07T21:03:19.069Z,15.03
2023-05-07T21:05:19.411Z,14.96
2023-05-07T21:07:19.664Z,14.94
2023-05-07T21:09:20.001Z,14.89
2023-05-07T21:11:20.302Z,14.85
2023-05-07T21:13:20.746Z,14.86
2023-05-07T21:15:21.120Z,14.84
2023-05-07T21:17:21.432Z,14.86
2023-05-07T21:19:21.763Z,14.85
2023-05-07T21:21:22.042Z,14.85
2023-05-07T21:23:22.348Z,14.81
2023-05-07T21:25:22.672Z,14.79
2023-05-07T21:27:23.038Z,14.77
2023-05-07T21:29:23.316Z,14.72
2023-05-07T21:31:23.695Z,14.69
2023-05-07T21:33:23.948Z,14.68
2023-05-07T21:35:29.172Z,14.65
2023-05-07T21:37:29.441Z,14.69
2023-05-07T21:39:29.775Z,14.68
2023-05-07T21:41:30.105Z,14.66
2023-05-07T21:43:36.314Z,14.70
2023-05-07T21:45:36.585Z,14.77
2023-05-07T21:47:36.915Z,14.77
2023-05-07T21:49:37.227Z,14.73
2023-05-07T21:51:37.542Z,14.79
2023-05-07T21:53:37.815Z,14.79
2023-05-07T21:55:38.108Z,14.78
2023-05-07T21:57:38.402Z,14.77
2023-05-07T21:59:38.695Z,14.73
2023-05-07T22:01:43.905Z,14.77
2023-05-07T22:03:44.325Z,14.73
2023-05-07T22:05:44.674Z,14.70
2023-05-07T22:07:44.943Z,14.77
2023-05-07T22:09:45.264Z,14.72
2023-05-07T22:11:45.592Z,14.70
2023-05-07T22:13:45.900Z,14.72
2023-05-07T22:15:56.603Z,14.68
2023-05-07T22:17:51.389Z,14.69
2023-05-07T22:19:51.681Z,14.70
2023-05-07T22:21:51.952Z,14.68
2023-05-07T22:23:52.256Z,14.65
2023-05-07T22:25:52.561Z,14.63
2023-05-07T22:27:52.889Z,14.60
2023-05-07T22:29:53.261Z,14.60
2023-05-07T22:31:53.572Z,14.62
2023-05-07T22:33:53.857Z,14.60
2023-05-07T22:35:54.157Z,14.59
2023-05-07T22:37:54.479Z,14.60
2023-05-07T22:39:54.741Z,14.58
2023-05-07T22:41:55.045Z,14.62
2023-05-07T22:43:55.339Z,14.63
2023-05-07T22:45:55.694Z,14.59
2023-05-07T22:47:55.961Z,14.60
2023-05-07T22:49:56.307Z,14.62
2023-05-07T22:51:56.608Z,14.60
2023-05-07T22:53:56.906Z,14.60
2023-05-07T22:55:57.200Z,14.60
2023-05-07T22:57:57.506Z,14.60
2023-05-07T22:59:57.809Z,14.63
2023-05-07T23:01:58.147Z,14.65
2023-05-07T23:03:58.425Z,14.66
2023-05-07T23:05:58.734Z,14.73
2023-05-07T23:07:59.000Z,14.70
2023-05-07T23:09:59.307Z,14.73
2023-05-07T23:11:59.597Z,14.69
2023-05-07T23:13:59.910Z,14.69
2023-05-07T23:16:00.257Z,14.69
2023-05-07T23:18:00.637Z,14.69
2023-05-07T23:20:01.003Z,14.65
2023-05-07T23:22:01.285Z,14.63
2023-05-07T23:24:01.593Z,14.66
2023-05-07T23:26:01.873Z,14.65
2023-05-07T23:28:02.158Z,14.66
2023-05-07T23:30:02.510Z,14.65
2023-05-07T23:32:02.821Z,14.68
2023-05-07T23:34:03.099Z,14.66
2023-05-07T23:36:03.421Z,14.63
2023-05-07T23:38:03.681Z,14.62
2023-05-07T23:40:03.979Z,14.60
2023-05-07T23:42:05.103Z,14.59
2023-05-07T23:44:05.380Z,14.55
2023-05-07T23:46:05.718Z,14.55
2023-05-07T23:48:05.993Z,14.60
2023-05-07T23:50:06.306Z,14.54
2023-05-07T23:52:06.570Z,14.55
2023-05-07T23:54:06.898Z,14.54
2023-05-07T23:56:07.170Z,14.53
2023-05-07T23:58:07.440Z,14.54
